Time;durP1;ratioP1;P1;durP2;ratioP2;P2;SDS_P1;SDS_P2;PMS_P1;PMS_P2;Temp;Humidity;BMP_temperature;BMP_pressure;BME280_temperature;BME280_humidity;BME280_pressure;Samples;Min_cycle;Max_cycle;Signal;HPM_P1;HPM_P2
2022/01/31 00:02:10;;;;;;;16.90;4.37;;;7.00;99.90;;;;;;4938983;29;20176;-87
2022/01/31 00:04:36;;;;;;;14.93;4.57;;;6.90;99.90;;;;;;4938726;29;20199;-88
2022/01/31 00:07:03;;;;;;;17.00;4.83;;;6.90;99.90;;;;;;4939147;29;20227;-89
2022/01/31 00:09:29;;;;;;;14.80;4.00;;;7.00;99.90;;;;;;4938694;29;20206;-88
2022/01/31 00:12:02;;;;;;;11.17;3.50;;;7.00;99.90;;;;;;4938610;29;20218;-89
2022/01/31 00:14:50;;;;;;;14.97;4.43;;;7.00;99.90;;;;;;4937938;29;20596;-89
2022/01/31 00:17:14;;;;;;;11.13;4.83;;;7.00;99.90;;;;;;4951750;29;20616;-89
2022/01/31 00:19:41;;;;;;;14.73;4.07;;;7.00;99.90;;;;;;4938348;29;20183;-89
2022/01/31 00:22:09;;;;;;;17.13;4.10;;;7.00;99.90;;;;;;4938866;29;20651;-89
2022/01/31 00:24:36;;;;;;;18.67;3.80;;;7.00;99.90;;;;;;4938279;29;20306;-88
2022/01/31 00:27:04;;;;;;;19.07;4.37;;;6.90;99.90;;;;;;4938267;29;20178;-88
2022/01/31 00:29:30;;;;;;;13.63;4.13;;;6.90;99.90;;;;;;4938457;29;20187;-88
2022/01/31 00:31:56;;;;;;;15.60;3.60;;;6.80;99.90;;;;;;4938619;29;20215;-87
2022/01/31 00:34:22;;;;;;;18.90;4.23;;;6.80;99.90;;;;;;4938547;29;20172;-87
2022/01/31 00:36:47;;;;;;;17.17;4.30;;;6.80;99.90;;;;;;4938215;29;20188;-88
2022/01/31 00:39:13;;;;;;;17.57;4.00;;;6.80;99.90;;;;;;4938145;29;20199;-88
2022/01/31 00:41:39;;;;;;;13.83;3.47;;;6.80;99.90;;;;;;4937871;29;20269;-87
2022/01/31 00:44:39;;;;;;;11.23;3.37;;;6.90;99.90;;;;;;4955334;29;20214;-88
2022/01/31 00:46:59;;;;;;;17.63;4.27;;;6.90;99.90;;;;;;4954780;29;20187;-88
2022/01/31 00:51:59;;;;;;;11.30;3.20;;;6.80;99.90;;;;;;4955516;29;20206;-89
2022/01/31 00:54:24;;;;;;;12.97;3.03;;;6.80;99.90;;;;;;4937355;29;20359;-88
2022/01/31 00:56:51;;;;;;;12.90;4.90;;;6.80;99.90;;;;;;4938098;29;20204;-88
2022/01/31 00:59:17;;;;;;;14.77;3.37;;;6.90;99.90;;;;;;4938324;29;20181;-88
2022/01/31 01:01:43;;;;;;;12.50;3.30;;;7.00;99.90;;;;;;4938297;29;20175;-89
2022/01/31 01:04:08;;;;;;;18.57;3.97;;;7.00;99.90;;;;;;4938053;29;20203;-88
2022/01/31 01:06:34;;;;;;;17.17;3.23;;;7.10;99.90;;;;;;4938188;29;20177;-88
2022/01/31 01:08:59;;;;;;;19.37;3.53;;;7.10;99.90;;;;;;4938143;29;20629;-88
2022/01/31 01:11:26;;;;;;;17.83;3.53;;;7.10;99.90;;;;;;4937944;29;20230;-88
2022/01/31 01:13:52;;;;;;;17.13;3.70;;;7.10;99.90;;;;;;4938287;29;20189;-88
2022/01/31 01:16:18;;;;;;;16.07;3.83;;;7.00;99.90;;;;;;4937903;29;20175;-87
2022/01/31 01:18:46;;;;;;;20.73;4.30;;;6.90;99.90;;;;;;4938092;29;20171;-87
2022/01/31 01:21:12;;;;;;;15.23;3.50;;;6.80;99.90;;;;;;4937882;29;20179;-87
2022/01/31 01:23:38;;;;;;;18.67;4.07;;;6.70;99.90;;;;;;4937654;29;20644;-85
2022/01/31 01:26:03;;;;;;;20.93;3.70;;;6.50;99.90;;;;;;4937983;29;20167;-86
2022/01/31 01:28:30;;;;;;;19.07;4.30;;;6.50;99.90;;;;;;4938011;29;20221;-86
2022/01/31 01:30:56;;;;;;;22.60;3.67;;;6.50;99.90;;;;;;4937996;29;20175;-86
2022/01/31 01:33:23;;;;;;;18.57;4.03;;;6.50;99.90;;;;;;4937572;29;20171;-86
2022/01/31 01:35:51;;;;;;;22.43;4.60;;;6.50;99.90;;;;;;4937550;29;20270;-86
2022/01/31 01:38:18;;;;;;;26.70;5.27;;;6.40;99.90;;;;;;4937664;29;20179;-86
2022/01/31 01:40:46;;;;;;;17.80;4.37;;;6.30;99.90;;;;;;4937746;29;20167;-86
2022/01/31 01:43:13;;;;;;;22.03;4.67;;;6.30;99.90;;;;;;4937407;29;20195;-86
2022/01/31 01:45:40;;;;;;;15.77;3.80;;;6.30;99.90;;;;;;4937455;29;20199;-86
2022/01/31 01:48:07;;;;;;;18.83;4.97;;;6.30;99.90;;;;;;4937699;29;20306;-86
2022/01/31 01:50:34;;;;;;;25.20;5.57;;;6.30;99.90;;;;;;4937675;29;20273;-85
2022/01/31 01:53:00;;;;;;;17.30;4.10;;;6.20;99.90;;;;;;4938098;29;20175;-85
2022/01/31 01:55:26;;;;;;;21.47;4.03;;;6.30;99.90;;;;;;4941386;29;20314;-86
2022/01/31 01:57:52;;;;;;;17.07;4.30;;;6.20;99.90;;;;;;4941163;29;20167;-85
2022/01/31 02:00:26;;;;;;;15.67;4.37;;;6.20;99.90;;;;;;4941092;29;20175;-86
2022/01/31 02:02:52;;;;;;;16.50;4.73;;;6.30;99.90;;;;;;4941193;29;20287;-86
2022/01/31 02:05:18;;;;;;;23.13;4.77;;;6.30;99.90;;;;;;4941189;29;20695;-86
2022/01/31 02:07:44;;;;;;;16.10;4.17;;;6.20;99.90;;;;;;4940610;29;20175;-86
2022/01/31 02:10:11;;;;;;;18.30;5.20;;;6.20;99.90;;;;;;4940946;29;20186;-87
2022/01/31 02:12:48;;;;;;;18.63;4.67;;;6.20;99.90;;;;;;4940652;29;20172;-87
2022/01/31 02:15:15;;;;;;;16.73;5.17;;;6.20;99.90;;;;;;4940874;29;20174;-87
2022/01/31 02:17:42;;;;;;;18.80;4.83;;;6.20;99.90;;;;;;4940526;29;20194;-87
2022/01/31 02:20:10;;;;;;;15.17;5.90;;;6.20;99.90;;;;;;4940971;29;20182;-87
2022/01/31 02:22:36;;;;;;;19.97;5.50;;;6.20;99.90;;;;;;4940286;29;20179;-86
2022/01/31 02:25:04;;;;;;;18.43;5.00;;;6.20;99.90;;;;;;4940832;29;20257;-86
2022/01/31 02:27:35;;;;;;;18.07;5.00;;;6.20;99.90;;;;;;4940404;28;20183;-87
2022/01/31 02:30:02;;;;;;;14.23;5.57;;;6.30;99.90;;;;;;4940703;29;20195;-87
2022/01/31 02:32:27;;;;;;;18.70;5.73;;;6.40;99.90;;;;;;4940214;29;20628;-86
2022/01/31 02:34:53;;;;;;;12.60;4.57;;;6.30;99.90;;;;;;4940299;29;20431;-87
2022/01/31 02:37:19;;;;;;;21.30;4.97;;;6.30;99.90;;;;;;4940278;29;20207;-86
2022/01/31 02:39:46;;;;;;;13.47;4.93;;;6.20;99.90;;;;;;4940406;29;20168;-87
2022/01/31 02:42:13;;;;;;;17.03;4.70;;;6.20;99.90;;;;;;4940164;29;20506;-87
2022/01/31 02:44:40;;;;;;;14.80;5.40;;;6.20;99.90;;;;;;4939851;29;20225;-87
2022/01/31 02:47:12;;;;;;;8.20;4.37;;;6.10;99.90;;;;;;4940222;29;20179;-86
2022/01/31 02:49:48;;;;;;;12.60;4.43;;;6.10;99.90;;;;;;4939967;29;20241;-85
2022/01/31 02:52:15;;;;;;;11.57;3.90;;;6.10;99.90;;;;;;4940119;29;20629;-86
2022/01/31 02:54:41;;;;;;;13.27;4.77;;;6.10;99.90;;;;;;4939947;29;20175;-86
2022/01/31 02:57:07;;;;;;;8.77;4.10;;;6.10;99.90;;;;;;4939782;29;20179;-86
2022/01/31 02:59:32;;;;;;;10.17;4.23;;;6.10;99.90;;;;;;4940071;29;20282;-86
2022/01/31 03:01:58;;;;;;;11.97;3.60;;;6.20;99.90;;;;;;4939909;29;20168;-86
2022/01/31 03:04:24;;;;;;;12.90;3.67;;;6.10;99.90;;;;;;4939406;28;20203;-86
2022/01/31 03:06:50;;;;;;;4.93;3.00;;;6.20;99.90;;;;;;4939430;29;20247;-87
2022/01/31 03:09:16;;;;;;;12.43;4.07;;;6.40;99.90;;;;;;4939986;29;20171;-87
2022/01/31 03:11:42;;;;;;;8.80;2.73;;;6.40;99.90;;;;;;4939627;29;20164;-86
2022/01/31 03:14:09;;;;;;;7.27;2.80;;;6.40;99.90;;;;;;4939529;29;20179;-87
2022/01/31 03:16:40;;;;;;;5.83;3.47;;;6.50;99.90;;;;;;4939683;29;20587;-87
2022/01/31 03:19:09;;;;;;;6.33;3.07;;;6.50;99.90;;;;;;4939434;29;20171;-85
2022/01/31 03:21:35;;;;;;;9.77;3.53;;;6.60;99.90;;;;;;4939785;29;20179;-84
2022/01/31 03:24:00;;;;;;;11.70;3.73;;;6.70;99.90;;;;;;4939476;29;20207;-87
2022/01/31 03:26:26;;;;;;;6.80;3.90;;;6.80;99.90;;;;;;4939425;29;20551;-84
2022/01/31 03:28:53;;;;;;;15.53;3.83;;;6.80;99.90;;;;;;4939295;29;20226;-85
2022/01/31 03:31:20;;;;;;;14.23;4.03;;;6.90;99.90;;;;;;4939370;29;20179;-85
2022/01/31 03:33:47;;;;;;;12.80;4.37;;;6.90;99.90;;;;;;4938989;29;20187;-87
2022/01/31 03:36:12;;;;;;;16.33;5.40;;;6.90;99.90;;;;;;4939441;29;20179;-85
2022/01/31 03:38:40;;;;;;;14.20;4.53;;;7.00;99.90;;;;;;4939162;29;20179;-85
2022/01/31 03:41:14;;;;;;;17.97;4.47;;;7.10;99.90;;;;;;4939579;29;20232;-87
2022/01/31 03:43:40;;;;;;;14.80;4.70;;;7.10;99.90;;;;;;4938999;29;20215;-87
2022/01/31 03:46:06;;;;;;;19.57;4.00;;;7.20;99.90;;;;;;4939338;29;20227;-87
2022/01/31 03:48:33;;;;;;;14.67;4.50;;;7.10;99.90;;;;;;4938773;29;20175;-87
2022/01/31 03:51:00;;;;;;;12.87;4.30;;;7.10;99.90;;;;;;4939121;29;20171;-88
2022/01/31 03:53:26;;;;;;;16.23;3.97;;;7.20;99.90;;;;;;4939092;29;20174;-88
2022/01/31 03:55:52;;;;;;;18.43;4.67;;;7.20;99.90;;;;;;4939018;29;20171;-87
2022/01/31 03:58:18;;;;;;;21.70;3.70;;;7.10;99.90;;;;;;4939154;29;20176;-88
2022/01/31 04:00:44;;;;;;;20.50;3.73;;;7.10;99.90;;;;;;4939290;29;20556;-88
2022/01/31 04:03:10;;;;;;;19.93;3.37;;;7.10;99.90;;;;;;4938667;29;20199;-88
2022/01/31 04:05:39;;;;;;;19.57;3.50;;;7.10;99.90;;;;;;4938712;29;20180;-88
2022/01/31 04:08:09;;;;;;;12.33;2.60;;;7.10;99.90;;;;;;4938859;29;20621;-88
2022/01/31 04:10:36;;;;;;;15.43;2.37;;;7.10;99.90;;;;;;4938716;29;20170;-88
2022/01/31 04:13:02;;;;;;;15.47;2.63;;;7.00;99.90;;;;;;4938751;29;20234;-88
2022/01/31 04:15:28;;;;;;;20.17;2.90;;;7.00;99.90;;;;;;4938652;29;20175;-88
2022/01/31 04:17:54;;;;;;;16.73;3.03;;;7.00;99.90;;;;;;4937806;29;20172;-88
2022/01/31 04:20:20;;;;;;;20.97;2.87;;;7.00;99.90;;;;;;4938445;29;20177;-88
2022/01/31 04:23:00;;;;;;;14.50;2.70;;;6.90;99.90;;;;;;4938943;29;20182;-88
2022/01/31 04:25:51;;;;;;;11.77;2.10;;;6.80;99.90;;;;;;4938774;29;20179;-88
2022/01/31 04:33:18;;;;;;;21.30;2.30;;;6.80;99.90;;;;;;4955717;29;20256;-89
2022/01/31 04:35:44;;;;;;;12.60;1.83;;;6.90;99.90;;;;;;4938266;29;20167;-89
2022/01/31 04:38:10;;;;;;;13.40;2.20;;;6.80;99.90;;;;;;4938667;29;20168;-88
2022/01/31 04:40:35;;;;;;;13.40;2.70;;;6.80;99.90;;;;;;4938290;29;20265;-89
2022/01/31 04:43:01;;;;;;;11.53;2.27;;;6.90;99.90;;;;;;4938490;29;20178;-87
2022/01/31 04:45:27;;;;;;;8.77;2.13;;;6.90;99.90;;;;;;4937864;29;20235;-89
2022/01/31 04:47:52;;;;;;;10.47;2.20;;;6.90;99.90;;;;;;4938220;29;20190;-89
2022/01/31 04:50:18;;;;;;;15.57;3.07;;;6.90;99.90;;;;;;4938089;29;20176;-88
2022/01/31 04:52:44;;;;;;;17.30;2.63;;;6.90;99.90;;;;;;4938174;29;20159;-88
2022/01/31 04:55:10;;;;;;;9.50;1.80;;;6.90;99.90;;;;;;4938112;29;20198;-88
2022/01/31 04:57:36;;;;;;;10.60;1.80;;;6.90;99.90;;;;;;4938653;29;20261;-88
2022/01/31 05:00:06;;;;;;;12.83;2.00;;;6.90;99.90;;;;;;4937870;29;20676;-88
2022/01/31 05:02:32;;;;;;;18.63;2.97;;;6.90;99.90;;;;;;4938225;29;20172;-89
2022/01/31 05:04:58;;;;;;;13.37;2.50;;;6.90;99.90;;;;;;4937831;29;20229;-89
2022/01/31 05:07:23;;;;;;;15.93;2.77;;;6.80;99.90;;;;;;4938205;29;20175;-89
2022/01/31 05:09:50;;;;;;;13.43;2.40;;;6.90;99.90;;;;;;4937988;29;20180;-88
2022/01/31 05:12:16;;;;;;;14.73;1.97;;;6.90;99.90;;;;;;4938025;29;20625;-89
2022/01/31 05:14:42;;;;;;;12.77;2.40;;;6.90;99.90;;;;;;4937961;29;20187;-89
2022/01/31 05:17:09;;;;;;;11.63;2.03;;;7.00;99.90;;;;;;4938292;29;20168;-89
2022/01/31 05:19:35;;;;;;;12.90;2.40;;;7.10;99.90;;;;;;4937670;29;20243;-89
2022/01/31 05:22:01;;;;;;;14.27;2.10;;;7.20;99.90;;;;;;4938064;29;20270;-89
2022/01/31 05:24:27;;;;;;;12.07;2.30;;;7.10;99.90;;;;;;4937908;29;20208;-89
2022/01/31 05:26:53;;;;;;;15.23;1.80;;;7.20;99.90;;;;;;4937600;29;20175;-89
2022/01/31 05:29:20;;;;;;;13.03;2.37;;;7.20;99.90;;;;;;4940248;29;20200;-89
2022/01/31 05:31:46;;;;;;;11.97;2.10;;;7.20;99.90;;;;;;4941594;29;20642;-89
2022/01/31 05:34:12;;;;;;;13.00;1.90;;;7.10;99.90;;;;;;4941441;29;20531;-89
2022/01/31 05:36:39;;;;;;;7.73;2.10;;;7.20;99.90;;;;;;4941048;29;20262;-88
2022/01/31 05:39:05;;;;;;;14.33;3.10;;;7.20;99.90;;;;;;4941427;29;20191;-89
2022/01/31 05:41:31;;;;;;;8.43;1.53;;;7.30;99.90;;;;;;4941464;29;20572;-89
2022/01/31 05:43:56;;;;;;;10.53;2.17;;;7.30;99.90;;;;;;4940963;29;20250;-89
2022/01/31 05:46:22;;;;;;;13.23;2.23;;;7.20;99.90;;;;;;4941460;29;20179;-89
2022/01/31 05:48:48;;;;;;;10.93;1.73;;;7.20;99.90;;;;;;4941414;29;20202;-89
2022/01/31 05:51:18;;;;;;;11.67;2.50;;;7.20;99.90;;;;;;4941171;29;20177;-89
2022/01/31 05:53:46;;;;;;;13.67;2.40;;;7.10;99.90;;;;;;4941186;29;20591;-89
2022/01/31 05:56:16;;;;;;;18.67;2.00;;;7.10;99.90;;;;;;4940957;29;20167;-88
2022/01/31 05:58:43;;;;;;;7.00;1.70;;;7.10;99.90;;;;;;4940807;29;20171;-89
2022/01/31 06:01:09;;;;;;;14.30;2.27;;;7.10;99.90;;;;;;4941160;29;20211;-89
2022/01/31 06:03:35;;;;;;;12.53;1.73;;;7.10;99.90;;;;;;4940918;29;20244;-90
2022/01/31 06:06:01;;;;;;;9.07;2.03;;;7.10;99.90;;;;;;4941004;29;20176;-89
2022/01/31 06:08:28;;;;;;;10.27;1.67;;;7.10;99.90;;;;;;4934967;29;20170;-89
2022/01/31 06:10:54;;;;;;;12.00;2.17;;;7.20;99.90;;;;;;4929864;29;20245;-90
2022/01/31 06:13:24;;;;;;;12.47;2.10;;;7.20;99.90;;;;;;4926136;29;20182;-90
2022/01/31 06:15:50;;;;;;;12.37;2.43;;;7.20;99.90;;;;;;4921500;29;20538;-85
2022/01/31 06:18:16;;;;;;;10.33;1.57;;;7.20;99.90;;;;;;4921287;29;20539;-85
2022/01/31 06:20:42;;;;;;;19.07;2.20;;;7.10;99.90;;;;;;4921358;29;20226;-84
2022/01/31 06:23:07;;;;;;;13.57;1.87;;;7.10;99.90;;;;;;4921114;29;20665;-84
2022/01/31 06:25:34;;;;;;;13.33;2.40;;;7.10;99.90;;;;;;4938343;29;20534;-85
2022/01/31 06:28:00;;;;;;;8.90;1.83;;;7.20;99.90;;;;;;4921037;29;20220;-85
2022/01/31 06:30:26;;;;;;;16.53;3.00;;;7.20;99.90;;;;;;4921274;29;20211;-85
2022/01/31 06:32:54;;;;;;;12.27;1.77;;;7.20;99.90;;;;;;4921087;29;20176;-85
2022/01/31 06:35:20;;;;;;;9.67;2.20;;;7.20;99.90;;;;;;4921126;29;20207;-85
2022/01/31 06:37:45;;;;;;;9.80;1.90;;;7.20;99.90;;;;;;4921014;29;20207;-84
2022/01/31 06:40:11;;;;;;;15.30;3.00;;;7.20;99.90;;;;;;4919721;29;20165;-85
2022/01/31 06:42:37;;;;;;;10.17;1.67;;;7.30;99.90;;;;;;4920076;29;20172;-85
2022/01/31 06:45:06;;;;;;;17.40;3.47;;;7.30;99.90;;;;;;4920765;29;20583;-85
2022/01/31 09:21:23;;;;;;;18.73;3.20;;;7.40;99.90;;;;;;4983485;23;20238;-96
2022/01/31 09:23:52;;;;;;;9.73;2.70;;;7.40;99.90;;;;;;4942465;29;20271;-96
2022/01/31 09:26:23;;;;;;;14.33;3.30;;;7.40;99.90;;;;;;4941642;29;20188;-94
2022/01/31 09:28:53;;;;;;;16.23;3.87;;;7.30;99.90;;;;;;4958514;28;20324;-95
2022/01/31 09:31:20;;;;;;;13.20;3.70;;;7.30;99.90;;;;;;4941713;29;20176;-92
2022/01/31 09:33:46;;;;;;;8.47;2.53;;;7.40;99.90;;;;;;4941725;29;20182;-94
2022/01/31 09:36:12;;;;;;;11.40;3.70;;;7.50;99.90;;;;;;4941432;29;20189;-93
2022/01/31 09:38:40;;;;;;;13.00;2.77;;;7.50;99.90;;;;;;4943967;29;20189;-95
2022/01/31 09:41:05;;;;;;;21.60;3.50;;;7.60;99.90;;;;;;4941677;29;20306;-94
2022/01/31 09:48:44;;;;;;;14.83;3.37;;;7.70;99.90;;;;;;4960646;29;20180;-90
2022/01/31 09:51:20;;;;;;;14.43;3.57;;;7.70;99.90;;;;;;4944628;29;20224;-96
2022/01/31 09:53:49;;;;;;;10.20;4.07;;;7.60;99.90;;;;;;4943375;29;20336;-92
2022/01/31 09:56:21;;;;;;;16.57;3.37;;;7.70;99.90;;;;;;4947670;29;20161;-96
2022/01/31 09:58:48;;;;;;;17.10;3.80;;;7.70;99.90;;;;;;4937956;29;20626;-94
2022/01/31 10:01:46;;;;;;;15.80;3.17;;;7.60;99.90;;;;;;4960040;28;20172;-83
2022/01/31 10:04:35;;;;;;;18.30;3.73;;;7.60;99.90;;;;;;4973944;28;20219;-93
2022/01/31 10:07:02;;;;;;;12.53;2.90;;;7.60;99.90;;;;;;4943740;29;20224;-89
2022/01/31 10:09:33;;;;;;;13.63;2.60;;;7.60;99.90;;;;;;4938933;29;20667;-90
2022/01/31 10:12:07;;;;;;;11.73;2.20;;;7.10;99.90;;;;;;4939605;29;20167;-90
2022/01/31 10:17:28;;;;;;;18.13;3.00;;;6.60;99.90;;;;;;4958215;29;20291;-89
2022/01/31 10:19:56;;;;;;;17.83;2.93;;;6.60;99.90;;;;;;4957521;29;20191;-90
2022/01/31 10:22:24;;;;;;;16.97;2.83;;;6.70;99.90;;;;;;4957910;29;20172;-88
2022/01/31 10:24:54;;;;;;;14.50;4.10;;;6.90;99.90;;;;;;4940538;29;20263;-89
2022/01/31 10:27:21;;;;;;;15.53;4.17;;;7.00;99.90;;;;;;4940559;29;20191;-85
2022/01/31 10:29:48;;;;;;;19.43;2.87;;;7.10;99.90;;;;;;4940639;29;20236;-90
2022/01/31 10:32:24;;;;;;;17.40;3.60;;;7.30;99.90;;;;;;4957559;29;20171;-89
2022/01/31 10:35:11;;;;;;;17.10;3.57;;;7.40;99.90;;;;;;4957294;29;20178;-90
2022/01/31 10:37:43;;;;;;;13.47;2.77;;;7.50;99.90;;;;;;4940374;29;20216;-90
2022/01/31 10:51:52;;;;;;;14.83;4.43;;;7.50;99.90;;;;;;4957410;29;20192;-91
2022/01/31 10:56:57;;;;;;;15.73;2.67;;;7.50;99.90;;;;;;4957501;29;20176;-90
2022/01/31 10:59:25;;;;;;;19.73;3.47;;;7.40;99.90;;;;;;4940331;29;20198;-89
2022/01/31 11:01:56;;;;;;;16.50;3.43;;;7.50;99.90;;;;;;4940341;29;20693;-88
2022/01/31 11:04:22;;;;;;;14.63;3.93;;;7.50;99.90;;;;;;4939752;29;20332;-90
2022/01/31 11:06:56;;;;;;;7.93;2.43;;;7.40;99.90;;;;;;4940079;29;20175;-89
2022/01/31 11:09:21;;;;;;;18.90;3.70;;;7.40;99.90;;;;;;4939896;29;20271;-88
2022/01/31 11:11:49;;;;;;;16.57;3.33;;;7.50;99.90;;;;;;4940118;29;20629;-89
2022/01/31 11:14:20;;;;;;;12.90;2.50;;;7.40;99.90;;;;;;4956741;29;20629;-89
2022/01/31 11:16:48;;;;;;;13.00;2.93;;;7.40;99.90;;;;;;4939705;29;20168;-89
2022/01/31 11:19:17;;;;;;;20.33;3.47;;;7.40;99.90;;;;;;4956529;29;20196;-89
2022/01/31 11:21:46;;;;;;;15.17;3.37;;;7.50;99.90;;;;;;4939686;29;20173;-89
2022/01/31 11:24:19;;;;;;;19.53;2.60;;;7.80;99.90;;;;;;4939628;29;20216;-88
2022/01/31 11:26:51;;;;;;;17.10;3.03;;;7.90;99.90;;;;;;4938976;29;20529;-90
2022/01/31 11:29:18;;;;;;;18.33;3.40;;;7.80;99.90;;;;;;4939625;29;20653;-87
2022/01/31 11:31:45;;;;;;;17.97;3.33;;;7.60;99.90;;;;;;4939301;29;20180;-89
2022/01/31 11:34:11;;;;;;;13.83;3.40;;;7.60;99.90;;;;;;4939421;29;20183;-89
2022/01/31 11:36:38;;;;;;;19.80;3.03;;;7.60;99.90;;;;;;4939709;29;20169;-90
2022/01/31 11:39:06;;;;;;;16.60;3.87;;;7.60;99.90;;;;;;4939315;29;20365;-89
2022/01/31 11:41:34;;;;;;;14.33;3.60;;;7.70;99.90;;;;;;4939425;29;20173;-89
2022/01/31 11:44:10;;;;;;;15.77;3.27;;;7.50;99.90;;;;;;4939358;29;20209;-89
2022/01/31 11:46:39;;;;;;;19.07;3.33;;;7.50;99.90;;;;;;4938893;29;20268;-89
2022/01/31 11:49:10;;;;;;;21.10;4.20;;;7.50;99.90;;;;;;4938857;29;20188;-88
2022/01/31 11:52:08;;;;;;;20.40;2.90;;;7.50;99.90;;;;;;4939223;29;20252;-88
2022/01/31 11:54:45;;;;;;;13.90;3.50;;;7.50;99.90;;;;;;4938435;29;20632;-88
2022/01/31 11:57:13;;;;;;;19.93;3.83;;;7.00;99.90;;;;;;4939265;29;20267;-86
2022/01/31 11:59:40;;;;;;;15.57;3.80;;;6.70;99.90;;;;;;4939059;29;20183;-89
2022/01/31 12:02:06;;;;;;;17.20;3.63;;;6.50;99.90;;;;;;4938688;29;20182;-89
2022/01/31 12:04:34;;;;;;;19.50;4.20;;;6.60;99.90;;;;;;4938816;29;20675;-88
2022/01/31 12:07:29;;;;;;;16.73;4.20;;;6.60;99.90;;;;;;4938941;29;20625;-91
2022/01/31 12:09:57;;;;;;;13.50;4.07;;;6.70;99.90;;;;;;4938998;29;20291;-89
2022/01/31 12:12:37;;;;;;;18.03;3.40;;;6.70;99.90;;;;;;4938893;29;20175;-89
2022/01/31 12:23:55;;;;;;;16.80;4.10;;;6.90;99.90;;;;;;4956012;29;20267;-89
2022/01/31 12:26:32;;;;;;;22.10;4.27;;;6.90;99.90;;;;;;4939154;29;20173;-90
2022/01/31 12:29:00;;;;;;;23.13;4.50;;;7.10;99.90;;;;;;4938896;29;20203;-90
2022/01/31 12:31:34;;;;;;;28.43;4.73;;;7.10;99.90;;;;;;4938893;29;20216;-92
2022/01/31 12:34:03;;;;;;;25.57;4.20;;;7.20;99.90;;;;;;4956047;29;20185;-89
2022/01/31 12:36:35;;;;;;;27.30;4.07;;;7.20;99.90;;;;;;4938496;29;20179;-89
2022/01/31 12:39:03;;;;;;;17.77;3.53;;;7.20;99.90;;;;;;4954519;28;20164;-88
2022/01/31 12:41:34;;;;;;;16.27;3.53;;;7.30;99.90;;;;;;4938371;29;20540;-89
2022/01/31 12:44:42;;;;;;;15.70;3.10;;;7.20;99.90;;;;;;4938083;29;20215;-90
2022/01/31 12:47:14;;;;;;;23.97;3.50;;;7.20;99.90;;;;;;4955318;29;20246;-91
2022/01/31 12:49:40;;;;;;;15.63;3.27;;;7.20;99.90;;;;;;4938304;29;20172;-89
2022/01/31 12:52:07;;;;;;;23.10;3.80;;;7.10;99.90;;;;;;4938380;29;20175;-88
2022/01/31 12:54:36;;;;;;;18.47;5.07;;;7.10;99.90;;;;;;4938209;29;20237;-90
2022/01/31 12:57:04;;;;;;;20.17;4.40;;;7.20;99.90;;;;;;4938299;29;20172;-89
2022/01/31 12:59:30;;;;;;;24.50;3.53;;;7.30;99.90;;;;;;4955168;29;20183;-90
2022/01/31 13:01:58;;;;;;;19.93;3.73;;;7.40;99.90;;;;;;4938392;29;20701;-89
2022/01/31 13:04:27;;;;;;;20.97;3.70;;;7.50;99.90;;;;;;4938434;29;20747;-87
2022/01/31 13:07:00;;;;;;;16.60;3.30;;;7.40;99.90;;;;;;4955102;29;20200;-89
2022/01/31 13:09:30;;;;;;;16.33;4.20;;;7.30;99.90;;;;;;4955270;29;20232;-86
2022/01/31 13:11:57;;;;;;;26.93;4.13;;;7.10;99.90;;;;;;4938246;29;20227;-90
2022/01/31 13:14:24;;;;;;;20.87;4.83;;;7.00;99.90;;;;;;4937675;29;20178;-87
2022/01/31 13:16:58;;;;;;;20.17;4.87;;;6.90;99.90;;;;;;4938566;29;20172;-89
2022/01/31 13:19:25;;;;;;;23.20;4.03;;;6.70;99.90;;;;;;4937771;29;20194;-90
2022/01/31 13:21:53;;;;;;;20.03;3.77;;;6.80;99.90;;;;;;4938030;29;20212;-89
2022/01/31 13:24:30;;;;;;;28.60;4.17;;;6.90;99.90;;;;;;4938073;29;20204;-90
2022/01/31 13:26:57;;;;;;;27.57;4.93;;;7.10;99.90;;;;;;4938049;29;20178;-90
2022/01/31 13:29:30;;;;;;;23.10;4.30;;;7.10;99.90;;;;;;4937945;29;20174;-89
2022/01/31 13:31:56;;;;;;;21.20;4.47;;;7.10;99.90;;;;;;4938138;29;20179;-91
2022/01/31 13:34:43;;;;;;;24.07;5.03;;;7.10;99.90;;;;;;4939046;29;20169;-91
2022/01/31 13:37:40;;;;;;;26.53;5.10;;;7.20;99.90;;;;;;4938013;29;20180;-91
2022/01/31 13:40:17;;;;;;;24.13;4.67;;;7.30;99.90;;;;;;4937983;29;20187;-91
2022/01/31 13:42:45;;;;;;;28.93;5.13;;;7.20;99.90;;;;;;4937524;29;20185;-89
2022/01/31 13:45:22;;;;;;;45.93;7.17;;;7.20;99.90;;;;;;4937909;29;20207;-90
2022/01/31 13:50:26;;;;;;;25.50;5.43;;;7.30;99.90;;;;;;4957608;28;20184;-92
2022/01/31 13:53:07;;;;;;;20.73;4.20;;;7.30;99.90;;;;;;4941667;29;20193;-91
2022/01/31 13:55:35;;;;;;;24.03;5.10;;;7.20;99.90;;;;;;4941628;29;20173;-89
2022/01/31 13:58:01;;;;;;;15.70;3.97;;;7.30;99.90;;;;;;4941011;29;20272;-89
2022/01/31 14:00:27;;;;;;;29.63;5.40;;;7.30;99.90;;;;;;4941256;29;20160;-88
2022/01/31 14:03:14;;;;;;;18.37;3.40;;;7.40;99.90;;;;;;4941227;29;20174;-89
2022/01/31 14:05:48;;;;;;;21.77;3.93;;;7.40;99.90;;;;;;4941362;29;20192;-90
2022/01/31 14:08:14;;;;;;;17.87;2.67;;;7.40;99.90;;;;;;4941110;29;20175;-91
2022/01/31 14:10:42;;;;;;;26.73;3.93;;;7.30;99.90;;;;;;4941369;29;20628;-89
2022/01/31 14:13:14;;;;;;;22.23;4.77;;;7.30;99.90;;;;;;4940766;29;20174;-88
2022/01/31 14:15:47;;;;;;;20.17;3.53;;;7.30;99.90;;;;;;4940899;29;20669;-88
2022/01/31 14:18:20;;;;;;;24.33;4.07;;;7.30;99.90;;;;;;4940653;29;20175;-90
2022/01/31 14:20:52;;;;;;;24.90;3.77;;;7.20;99.90;;;;;;4940738;29;20180;-88
2022/01/31 14:23:17;;;;;;;26.57;4.37;;;7.20;99.90;;;;;;4940558;29;20239;-90
2022/01/31 14:25:46;;;;;;;21.53;3.90;;;7.20;99.90;;;;;;4957508;29;20185;-88
2022/01/31 14:28:13;;;;;;;18.97;3.83;;;7.20;99.90;;;;;;4940478;29;20231;-88
2022/01/31 14:30:51;;;;;;;31.10;5.73;;;7.10;99.90;;;;;;4940625;29;20608;-88
2022/01/31 14:33:22;;;;;;;24.47;4.27;;;7.00;99.90;;;;;;4940531;29;20183;-88
2022/01/31 14:35:50;;;;;;;32.73;5.27;;;6.90;99.90;;;;;;4940469;29;20541;-90
2022/01/31 14:38:29;;;;;;;22.97;5.57;;;6.90;99.90;;;;;;4940568;29;20699;-91
2022/01/31 14:49:03;;;;;;;19.77;4.23;;;6.50;99.90;;;;;;4957591;29;20231;-92
2022/01/31 14:51:31;;;;;;;23.20;4.73;;;6.60;99.90;;;;;;4940261;29;20632;-91
2022/01/31 14:54:18;;;;;;;20.37;5.33;;;6.50;99.90;;;;;;4940195;29;20582;-91
2022/01/31 14:56:46;;;;;;;22.77;4.57;;;6.50;99.90;;;;;;4939332;29;20204;-88
2022/01/31 14:59:12;;;;;;;32.10;5.17;;;6.50;99.90;;;;;;4957254;29;20175;-92
2022/01/31 15:01:37;;;;;;;27.40;4.70;;;6.50;99.90;;;;;;4939510;29;20160;-87
2022/01/31 15:04:15;;;;;;;21.23;5.23;;;6.50;99.90;;;;;;4940248;29;20212;-88
2022/01/31 15:06:40;;;;;;;29.97;4.70;;;6.50;99.90;;;;;;4940270;29;20180;-90
2022/01/31 15:09:06;;;;;;;33.90;6.43;;;6.60;99.90;;;;;;4939736;29;20183;-88
2022/01/31 15:11:31;;;;;;;29.40;4.93;;;6.70;99.90;;;;;;4940056;29;20240;-90
2022/01/31 15:13:58;;;;;;;31.23;5.60;;;6.60;99.90;;;;;;4939911;29;20187;-91
2022/01/31 15:16:28;;;;;;;23.53;4.17;;;6.60;99.90;;;;;;4940082;29;20171;-90
2022/01/31 15:18:53;;;;;;;33.07;5.77;;;6.50;99.90;;;;;;4939543;29;20179;-90
2022/01/31 15:21:21;;;;;;;21.33;3.60;;;6.50;99.90;;;;;;4939946;29;20666;-91
2022/01/31 15:23:51;;;;;;;21.73;3.70;;;6.50;99.90;;;;;;4939574;29;20191;-90
2022/01/31 15:26:19;;;;;;;30.17;4.67;;;6.40;99.90;;;;;;4939630;29;20180;-89
2022/01/31 15:28:48;;;;;;;32.53;7.43;;;6.20;99.90;;;;;;4939480;29;20192;-89
2022/01/31 15:31:14;;;;;;;25.33;4.83;;;6.20;99.90;;;;;;4939548;29;20258;-90
2022/01/31 15:33:40;;;;;;;39.27;6.63;;;6.20;99.90;;;;;;4939220;29;20271;-89
2022/01/31 15:36:10;;;;;;;37.10;6.00;;;6.30;99.90;;;;;;4939463;29;20246;-90
2022/01/31 15:38:36;;;;;;;30.90;4.57;;;6.40;99.90;;;;;;4939228;29;20171;-90
2022/01/31 15:41:04;;;;;;;33.40;5.53;;;6.50;99.90;;;;;;4939524;29;20164;-91
2022/01/31 15:43:31;;;;;;;33.73;6.23;;;6.40;99.90;;;;;;4939088;29;20248;-91
2022/01/31 15:45:57;;;;;;;29.70;5.83;;;6.40;99.90;;;;;;4939353;29;20175;-89
2022/01/31 15:48:24;;;;;;;32.30;6.67;;;6.40;99.90;;;;;;4938998;29;20185;-91
2022/01/31 15:50:50;;;;;;;33.30;5.47;;;6.40;99.90;;;;;;4939354;29;20292;-90
2022/01/31 15:53:22;;;;;;;22.80;5.33;;;6.40;99.90;;;;;;4938724;29;20636;-90
2022/01/31 15:55:48;;;;;;;33.37;5.37;;;6.40;99.90;;;;;;4939186;29;20705;-90
2022/01/31 15:58:15;;;;;;;24.50;5.10;;;6.50;99.90;;;;;;4956061;29;20250;-90
2022/01/31 16:00:47;;;;;;;28.80;5.20;;;6.50;99.90;;;;;;4939283;29;20167;-91
2022/01/31 16:03:17;;;;;;;28.37;6.40;;;6.50;99.90;;;;;;4956060;29;20164;-90
2022/01/31 16:05:43;;;;;;;36.13;5.23;;;6.60;99.90;;;;;;4938894;29;20180;-90
2022/01/31 16:08:10;;;;;;;24.23;5.07;;;6.60;99.90;;;;;;4938798;29;20172;-91
2022/01/31 16:10:37;;;;;;;32.90;4.60;;;6.60;99.90;;;;;;4938698;29;20624;-89
2022/01/31 16:13:04;;;;;;;26.27;4.83;;;6.60;99.90;;;;;;4939022;29;20163;-91
2022/01/31 16:15:37;;;;;;;25.40;4.47;;;6.50;99.90;;;;;;4938680;29;20168;-91
2022/01/31 16:18:04;;;;;;;30.77;4.47;;;6.40;99.90;;;;;;4938912;29;20171;-89
2022/01/31 16:20:30;;;;;;;25.03;4.40;;;6.50;99.90;;;;;;4938711;29;20197;-91